Time;durP1;ratioP1;P1;durP2;ratioP2;P2;SDS_P1;SDS_P2;PMS_P1;PMS_P2;Temp;Humidity;BMP_temperature;BMP_pressure;BME280_temperature;BME280_humidity;BME280_pressure;Samples;Min_cycle;Max_cycle;Signal;HPM_P1;HPM_P2
2022/03/27 00:04:05;;;;;;;;;;;10.40;39.10;;;8.77;42.18;102728.94;8250200;28;19924;-85
2022/03/27 00:08:28;;;;;;;;;;;10.30;39.10;;;8.69;42.35;102727.34;8247235;28;19924;-84
2022/03/27 00:12:52;;;;;;;;;;;10.20;39.10;;;8.57;42.49;102718.84;8257322;28;19921;-84
2022/03/27 00:17:13;;;;;;;;;;;10.20;39.10;;;8.54;42.22;102720.63;8245548;28;20421;-85
2022/03/27 00:21:35;;;;;;;;;;;10.20;39.10;;;8.53;42.30;102729.31;8244919;28;20397;-85
2022/03/27 00:25:57;;;;;;;;;;;10.10;39.10;;;8.41;42.42;102725.16;8246964;28;19944;-83
2022/03/27 00:30:19;;;;;;;;;;;10.00;39.10;;;8.32;42.18;102741.72;8257433;28;19929;-84
2022/03/27 00:34:41;;;;;;;;;;;10.00;39.10;;;8.34;41.98;102755.56;8272847;28;19928;-84
2022/03/27 00:39:03;;;;;;;;;;;9.90;39.10;;;8.08;42.41;102727.28;8258107;28;20290;-84
2022/03/27 00:43:28;;;;;;;;;;;9.80;39.10;;;8.07;42.32;102740.28;8262402;28;20407;-84
2022/03/27 00:47:50;;;;;;;;;;;9.70;39.00;;;8.09;42.27;102747.22;8242267;28;19924;-85
2022/03/27 00:52:12;;;;;;;;;;;9.60;39.00;;;8.02;42.25;102755.09;8275775;28;19924;-85
2022/03/27 00:56:34;;;;;;;;;;;9.50;39.00;;;7.89;42.41;102739.66;8280529;28;19926;-85
2022/03/27 01:01:16;;;;;;;;;;;9.40;39.00;;;7.66;42.51;102713.03;8262404;28;20019;-85
2022/03/27 01:05:42;;;;;;;;;;;9.40;39.10;;;7.66;42.39;102715.63;8272221;28;19925;-84
2022/03/27 01:10:04;;;;;;;;;;;9.40;39.20;;;7.71;42.11;102732.03;8279349;28;19921;-85
2022/03/27 01:14:31;;;;;;;;;;;9.30;39.10;;;7.64;42.28;102733.88;8279275;28;20357;-85
2022/03/27 01:18:52;;;;;;;;;;;9.30;39.10;;;7.63;42.63;102742.53;8279200;28;19922;-85
2022/03/27 01:23:14;;;;;;;;;;;9.20;39.10;;;7.54;42.58;102735.69;8281465;28;20008;-85
2022/03/27 01:27:36;;;;;;;;;;;9.10;39.10;;;7.46;42.36;102740.09;8265860;28;20012;-85
2022/03/27 01:31:58;;;;;;;;;;;9.10;39.10;;;7.35;42.27;102734.16;8279021;28;20021;-85
2022/03/27 01:36:22;;;;;;;;;;;9.00;39.10;;;7.42;42.55;102741.00;8257477;28;20155;-85
2022/03/27 01:40:43;;;;;;;;;;;8.90;39.10;;;7.37;42.21;102748.00;8253310;28;20024;-86
2022/03/27 01:45:06;;;;;;;;;;;9.00;39.10;;;7.29;42.53;102739.38;8267065;28;20442;-85
2022/03/27 01:49:29;;;;;;;;;;;8.90;39.10;;;7.23;42.41;102749.84;8263596;28;19923;-85
2022/03/27 01:53:50;;;;;;;;;;;8.90;39.10;;;7.14;42.38;102750.78;8283498;28;20441;-85
2022/03/27 01:58:12;;;;;;;;;;;8.80;39.10;;;7.09;42.75;102752.56;8257367;28;20378;-84
2022/03/27 02:02:35;;;;;;;;;;;8.70;39.00;;;7.01;42.38;102764.75;8265939;28;19922;-85
2022/03/27 02:06:56;;;;;;;;;;;8.60;38.90;;;6.84;42.45;102744.09;8272174;28;19924;-85
2022/03/27 02:11:19;;;;;;;;;;;8.60;39.00;;;6.74;42.42;102747.63;8261382;28;19992;-85
2022/03/27 02:15:41;;;;;;;;;;;8.50;39.00;;;6.79;42.95;102769.22;8277860;28;19924;-85
2022/03/27 02:20:02;;;;;;;;;;;8.40;39.00;;;6.74;42.37;102777.03;8268202;28;19925;-85
2022/03/27 02:24:25;;;;;;;;;;;8.40;39.10;;;6.70;42.44;102779.66;8283742;28;20369;-85
2022/03/27 02:28:46;;;;;;;;;;;8.30;39.30;;;6.48;42.65;102778.91;8254220;28;20008;-85
2022/03/27 02:33:09;;;;;;;;;;;8.10;39.20;;;6.35;42.62;102778.13;8268437;28;20028;-85
2022/03/27 02:37:30;;;;;;;;;;;8.10;39.00;;;6.28;43.06;102766.88;8266007;28;19928;-85
2022/03/27 02:41:52;;;;;;;;;;;8.00;39.10;;;6.23;42.95;102766.03;8253551;28;20012;-85
2022/03/27 02:46:14;;;;;;;;;;;7.90;39.20;;;6.29;42.27;102785.91;8278842;28;20102;-85
2022/03/27 02:50:40;;;;;;;;;;;7.90;39.30;;;6.10;42.40;102772.16;8276637;28;20008;-85
2022/03/27 02:55:02;;;;;;;;;;;7.80;39.40;;;6.05;42.99;102777.38;8275168;28;20701;-85
2022/03/27 02:59:25;;;;;;;;;;;8.00;39.40;;;6.04;42.90;102783.41;8281546;28;19927;-84
2022/03/27 03:03:46;;;;;;;;;;;7.70;39.30;;;5.97;42.80;102769.59;8263688;28;19996;-84
2022/03/27 03:08:11;;;;;;;;;;;7.70;39.30;;;5.97;42.63;102777.38;8269547;28;20389;-85
2022/03/27 03:12:33;;;;;;;;;;;7.70;39.40;;;5.88;42.97;102771.31;8255387;28;20011;-85
2022/03/27 03:16:55;;;;;;;;;;;7.60;39.40;;;5.89;42.47;102778.25;8261531;28;20405;-85
2022/03/27 03:21:17;;;;;;;;;;;7.60;39.40;;;5.83;43.13;102762.69;8243864;28;20004;-85
2022/03/27 03:25:39;;;;;;;;;;;7.60;39.40;;;5.84;42.68;102774.81;8283343;28;20343;-85
2022/03/27 03:30:01;;;;;;;;;;;7.60;39.40;;;5.82;43.25;102771.34;8264782;28;19918;-85
2022/03/27 03:34:23;;;;;;;;;;;7.50;39.30;;;5.67;43.12;102752.38;8273045;28;20093;-85
2022/03/27 03:38:44;;;;;;;;;;;7.60;39.40;;;5.75;43.12;102766.19;8253683;28;19929;-85
2022/03/27 03:43:13;;;;;;;;;;;7.60;39.50;;;5.72;43.12;102770.50;8263448;28;20338;-85
2022/03/27 03:47:34;;;;;;;;;;;7.50;39.50;;;5.55;43.00;102762.75;8279015;28;20011;-85
2022/03/27 03:51:56;;;;;;;;;;;7.30;39.30;;;5.47;42.64;102772.25;8259683;28;20012;-85
2022/03/27 03:56:18;;;;;;;;;;;7.00;38.90;;;5.44;43.06;102782.63;8259998;28;20446;-85
2022/03/27 04:00:41;;;;;;;;;;;7.20;39.10;;;5.30;42.77;102770.53;8264429;28;20000;-85
2022/03/27 04:05:04;;;;;;;;;;;7.20;39.20;;;5.20;42.87;102763.63;8258574;28;20016;-85
2022/03/27 04:09:27;;;;;;;;;;;7.00;39.20;;;5.18;43.28;102770.53;8280118;28;20013;-85
2022/03/27 04:13:49;;;;;;;;;;;6.90;39.30;;;5.13;43.05;102781.75;8274556;28;20004;-85
2022/03/27 04:18:11;;;;;;;;;;;6.80;39.60;;;5.11;43.17;102781.78;8293869;28;19925;-85
2022/03/27 04:22:32;;;;;;;;;;;6.80;39.50;;;5.05;42.92;102771.38;8290846;28;20013;-85
2022/03/27 04:26:54;;;;;;;;;;;6.60;39.50;;;4.97;42.70;102760.16;8290431;28;20461;-85
2022/03/27 04:31:18;;;;;;;;;;;6.70;39.70;;;4.97;43.29;102758.47;8292411;28;20008;-85
2022/03/27 04:35:39;;;;;;;;;;;6.70;39.70;;;5.02;43.28;102766.22;8296061;28;20445;-85
2022/03/27 04:40:02;;;;;;;;;;;6.60;39.70;;;4.88;43.21;102740.31;8273004;28;19921;-85
2022/03/27 04:44:24;;;;;;;;;;;6.70;40.00;;;4.82;43.03;102735.13;8291686;28;20004;-85
2022/03/27 04:48:46;;;;;;;;;;;6.80;40.00;;;5.01;43.53;102767.94;8276970;28;20350;-85
2022/03/27 04:53:09;;;;;;;;;;;6.80;39.90;;;4.98;43.19;102748.97;8278306;28;20449;-85
2022/03/27 04:57:38;;;;;;;;;;;6.70;39.90;;;4.95;43.49;102749.81;8266768;28;20289;-85
2022/03/27 05:02:01;;;;;;;;;;;6.80;40.00;;;4.91;43.50;102737.72;8276246;28;19917;-86
2022/03/27 05:06:23;;;;;;;;;;;6.80;40.00;;;4.98;43.57;102749.81;8285014;28;20446;-85
2022/03/27 05:10:44;;;;;;;;;;;6.80;39.90;;;4.99;43.62;102767.06;8266875;28;20390;-85
2022/03/27 05:15:09;;;;;;;;;;;6.80;39.90;;;5.05;43.63;102768.78;8280363;28;20033;-85
2022/03/27 05:19:31;;;;;;;;;;;6.80;40.40;;;5.03;43.42;102778.31;8289397;28;19928;-85
2022/03/27 05:23:53;;;;;;;;;;;6.80;40.00;;;4.96;43.46;102792.09;8270257;28;19999;-85
2022/03/27 05:28:14;;;;;;;;;;;6.80;39.90;;;4.93;43.45;102786.91;8252687;28;20004;-84
2022/03/27 05:32:37;;;;;;;;;;;6.70;39.80;;;4.87;43.55;102782.59;8252222;28;20347;-85
2022/03/27 05:36:59;;;;;;;;;;;6.70;39.90;;;4.95;43.40;102800.75;8261235;28;20301;-85
2022/03/27 05:41:21;;;;;;;;;;;6.70;40.20;;;4.91;43.70;102791.22;8260357;28;20004;-85
2022/03/27 05:45:43;;;;;;;;;;;6.70;40.20;;;4.91;43.58;102786.03;8275705;28;19925;-85
2022/03/27 05:50:05;;;;;;;;;;;6.70;40.70;;;4.84;43.79;102780.88;8266854;28;20008;-82
2022/03/27 05:54:27;;;;;;;;;;;6.80;40.60;;;4.88;44.17;102800.69;8279919;28;20361;-87
2022/03/27 05:58:48;;;;;;;;;;;6.80;40.50;;;4.97;44.03;102810.25;8260112;28;19921;-87
2022/03/27 06:03:10;;;;;;;;;;;6.80;40.50;;;4.90;43.91;102818.84;8264560;28;20027;-88
2022/03/27 06:07:32;;;;;;;;;;;6.80;40.50;;;4.91;44.14;102824.88;8253026;28;20356;-91
2022/03/27 06:11:53;;;;;;;;;;;6.80;40.50;;;4.89;43.68;102824.91;8261267;28;20557;-87
2022/03/27 06:16:16;;;;;;;;;;;6.80;40.60;;;4.82;44.06;102816.22;8276865;28;20473;-87
2022/03/27 06:20:40;;;;;;;;;;;6.80;40.60;;;4.80;43.93;102797.25;8277704;28;19921;-95
2022/03/27 06:25:02;;;;;;;;;;;6.80;40.70;;;4.99;44.28;102825.75;8254921;28;20011;-87
2022/03/27 06:29:23;;;;;;;;;;;6.90;40.90;;;5.03;44.32;102830.94;8275655;28;20012;-86
2022/03/27 06:33:45;;;;;;;;;;;6.90;40.80;;;5.12;44.01;102840.44;8258947;28;20016;-90
2022/03/27 06:38:07;;;;;;;;;;;6.90;40.90;;;5.21;43.73;102844.78;8256908;28;19927;-87
2022/03/27 06:42:29;;;;;;;;;;;6.90;40.90;;;5.29;44.03;102848.25;8252750;28;19917;-88
2022/03/27 06:46:51;;;;;;;;;;;7.10;41.40;;;5.08;44.07;102800.75;8249740;28;20487;-89
2022/03/27 06:51:13;;;;;;;;;;;7.00;41.00;;;5.28;44.09;102824.06;8245840;28;20513;-85
2022/03/27 06:55:35;;;;;;;;;;;7.20;41.50;;;5.42;44.44;102842.22;8256808;28;20620;-87
2022/03/27 07:04:37;;;;;;;;;;;7.40;41.50;;;5.50;44.38;102844.81;8277308;28;20008;-86
2022/03/27 07:08:59;;;;;;;;;;;7.40;41.30;;;5.51;44.28;102836.19;8268038;28;19940;-85
2022/03/27 07:13:25;;;;;;;;;;;7.50;41.70;;;5.55;44.06;102835.31;8249164;28;19918;-88
2022/03/27 07:17:49;;;;;;;;;;;7.50;41.90;;;5.88;44.44;102869.84;8235834;28;19928;-85
2022/03/27 07:22:10;;;;;;;;;;;7.70;41.80;;;5.84;44.40;102847.41;8247920;28;20012;-88
2022/03/27 07:26:33;;;;;;;;;;;7.70;42.70;;;5.98;44.21;102856.91;8249548;28;19925;-90
2022/03/27 07:30:54;;;;;;;;;;;7.90;42.10;;;6.14;44.45;102873.31;8252710;28;20103;-92
2022/03/27 07:35:17;;;;;;;;;;;7.90;41.80;;;6.23;44.90;102868.97;8247236;28;20027;-89
2022/03/27 07:39:39;;;;;;;;;;;8.00;42.30;;;6.17;44.87;102852.53;8253206;28;19922;-88
2022/03/27 07:44:01;;;;;;;;;;;8.00;42.30;;;6.31;45.04;102847.31;8262315;28;20008;-87
2022/03/27 07:48:26;;;;;;;;;;;8.20;42.50;;;6.48;45.35;102857.66;8238797;28;19924;-88
2022/03/27 07:52:48;;;;;;;;;;;8.20;42.10;;;6.56;44.91;102844.63;8256041;28;20016;-92
2022/03/27 07:57:10;;;;;;;;;;;8.40;42.70;;;6.68;44.81;102856.69;8245739;28;20016;-93
2022/03/27 08:01:32;;;;;;;;;;;8.60;42.70;;;6.78;45.06;102846.25;8271782;28;20415;-83
2022/03/27 08:05:54;;;;;;;;;;;8.70;44.20;;;6.76;44.94;102810.78;8280579;28;20454;-84
2022/03/27 08:10:16;;;;;;;;;;;8.80;43.80;;;7.16;45.38;102857.31;8301614;28;20028;-84
2022/03/27 08:14:39;;;;;;;;;;;8.70;43.60;;;7.07;45.36;102824.44;8285911;28;20397;-83
2022/03/27 08:19:01;;;;;;;;;;;9.10;43.50;;;7.41;44.96;102853.66;8290545;28;19922;-86
2022/03/27 08:23:23;;;;;;;;;;;9.30;44.60;;;7.53;45.41;102843.16;8252311;28;19917;-83
2022/03/27 08:27:46;;;;;;;;;;;9.30;43.80;;;7.68;45.52;102833.50;8253195;28;20013;-82
2022/03/27 08:32:12;;;;;;;;;;;9.60;43.60;;;7.91;45.48;102833.25;8259048;28;20565;-82
2022/03/27 08:36:34;;;;;;;;;;;9.70;43.20;;;8.02;45.50;102807.13;8261898;28;20008;-82
2022/03/27 08:40:55;;;;;;;;;;;10.00;44.60;;;8.48;45.58;102836.16;8264435;28;19921;-86
2022/03/27 08:45:19;;;;;;;;;;;10.20;44.90;;;8.85;45.84;102835.63;8286868;28;20004;-83
2022/03/27 08:49:41;;;;;;;;;;;10.20;45.10;;;9.18;46.09;102831.69;8286178;28;20602;-86
2022/03/27 08:54:05;;;;;;;;;;;10.90;45.30;;;9.46;45.76;102833.84;8272537;28;20351;-86
2022/03/27 08:58:33;;;;;;;;;;;11.20;45.80;;;9.64;45.91;102810.06;8254543;28;19989;-93
2022/03/27 09:02:56;;;;;;;;;;;11.50;45.70;;;9.98;45.95;102825.09;8257295;28;20020;-93
2022/03/27 09:07:18;;;;;;;;;;;11.80;44.90;;;10.11;45.97;102789.19;8269533;28;19924;-85
2022/03/27 09:11:40;;;;;;;;;;;11.80;44.50;;;10.60;46.01;102825.63;8253246;28;20465;-88
2022/03/27 09:16:05;;;;;;;;;;;12.50;44.70;;;10.77;46.33;102796.50;8248258;28;19922;-87
2022/03/27 09:20:47;;;;;;;;;;;12.70;46.20;;;11.09;45.67;102787.03;8255797;28;19940;-84
2022/03/27 09:25:08;;;;;;;;;;;13.10;45.20;;;11.46;46.01;102807.91;8259996;28;19936;-85
2022/03/27 09:29:30;;;;;;;;;;;13.40;44.70;;;11.70;46.53;102795.09;8246256;28;19922;-83
2022/03/27 09:33:56;;;;;;;;;;;13.40;44.20;;;12.02;45.85;102798.66;8260498;28;20563;-85
2022/03/27 09:38:20;;;;;;;;;;;14.00;44.40;;;12.29;46.14;102795.25;8238446;28;19925;-86
2022/03/27 09:42:43;;;;;;;;;;;14.30;44.90;;;12.61;46.26;102801.28;8267312;28;19921;-87
2022/03/27 09:47:10;;;;;;;;;;;14.50;45.30;;;12.89;45.91;102805.69;8271887;28;19929;-88
2022/03/27 09:51:48;;;;;;;;;;;14.80;44.30;;;13.19;45.95;102807.31;8237926;28;19928;-84
2022/03/27 09:56:13;;;;;;;;;;;15.20;44.20;;;13.30;45.94;102772.03;8258418;28;19936;-88
2022/03/27 10:00:35;;;;;;;;;;;15.40;43.90;;;13.76;45.69;102794.91;8254585;28;19949;-84
2022/03/27 10:05:02;;;;;;;;;;;15.60;43.40;;;13.81;45.99;102752.72;8264931;28;20391;-86
2022/03/27 10:09:24;;;;;;;;;;;15.90;43.70;;;14.06;45.56;102756.16;8264030;28;19928;-84
2022/03/27 10:13:46;;;;;;;;;;;16.00;43.50;;;14.38;45.52;102756.72;8264194;28;19928;-86
2022/03/27 10:18:14;;;;;;;;;;;16.40;43.80;;;14.73;45.71;102772.91;8257344;28;19930;-87
2022/03/27 10:22:39;;;;;;;;;;;16.60;42.90;;;14.82;45.48;102749.75;8253553;28;19921;-89
2022/03/27 10:27:02;;;;;;;;;;;16.80;42.80;;;15.02;45.29;102746.28;8252155;28;19944;-85
2022/03/27 10:31:25;;;;;;;;;;;17.00;42.60;;;15.29;45.21;102761.84;8253035;28;19921;-84
2022/03/27 10:36:08;;;;;;;;;;;17.20;42.50;;;15.41;45.55;102744.66;8264782;28;20400;-82
2022/03/27 10:40:49;;;;;;;;;;;17.30;42.50;;;15.48;45.30;102727.69;8252708;28;19922;-86
2022/03/27 10:45:16;;;;;;;;;;;17.50;42.40;;;15.68;45.12;102745.22;8254461;28;20265;-84
2022/03/27 10:49:37;;;;;;;;;;;17.60;42.20;;;15.61;45.11;102699.03;8268881;28;19922;-84
2022/03/27 10:54:11;;;;;;;;;;;17.60;42.10;;;15.90;45.26;102732.84;8244787;28;20378;-84
2022/03/27 10:58:39;;;;;;;;;;;17.80;41.90;;;16.03;45.22;102729.63;8245638;28;19926;-82
2022/03/27 11:03:00;;;;;;;;;;;17.80;41.60;;;16.06;44.98;102703.16;8241881;28;19956;-81
2022/03/27 11:07:22;;;;;;;;;;;18.00;41.40;;;16.14;44.91;102693.94;8235334;28;19928;-83
2022/03/27 11:11:44;;;;;;;;;;;18.00;41.40;;;16.43;45.22;102702.25;8262832;28;19917;-83
2022/03/27 11:16:12;;;;;;;;;;;18.20;41.40;;;16.48;44.80;102689.72;8254167;28;20393;-82
2022/03/27 11:20:34;;;;;;;;;;;18.40;41.20;;;16.68;44.88;102696.63;8281993;28;20373;-82
2022/03/27 11:25:25;;;;;;;;;;;18.50;40.90;;;16.79;44.71;102694.34;8263012;28;20445;-80
2022/03/27 11:30:12;;;;;;;;;;;18.60;40.80;;;16.88;44.61;102682.50;8263119;28;19992;-82
2022/03/27 11:34:36;;;;;;;;;;;18.70;40.80;;;16.98;44.37;102674.94;8279275;28;19918;-82
2022/03/27 11:39:07;;;;;;;;;;;18.80;40.60;;;17.00;44.43;102666.00;8244906;28;19925;-81
2022/03/27 11:43:33;;;;;;;;;;;18.90;40.70;;;17.14;44.10;102680.28;8282615;28;19921;-82
2022/03/27 11:47:55;;;;;;;;;;;18.90;40.40;;;17.16;44.28;102652.88;8265205;28;20016;-82
2022/03/27 11:52:18;;;;;;;;;;;18.90;39.90;;;17.23;44.18;102646.34;8276989;28;19924;-82
2022/03/27 11:56:54;;;;;;;;;;;19.00;40.00;;;17.34;43.97;102650.22;8259913;28;19921;-81
2022/03/27 12:01:16;;;;;;;;;;;19.00;40.00;;;17.35;43.78;102642.19;8250407;28;20429;-81
2022/03/27 12:05:38;;;;;;;;;;;19.10;39.50;;;17.38;43.83;102646.47;8261992;28;20494;-81
2022/03/27 12:10:03;;;;;;;;;;;19.20;39.70;;;17.38;43.83;102641.19;8275216;28;20518;-82
2022/03/27 12:14:24;;;;;;;;;;;19.20;39.90;;;17.51;43.74;102639.59;8276703;28;19923;-83
2022/03/27 12:18:47;;;;;;;;;;;19.10;39.80;;;17.48;43.70;102623.91;8261710;28;20544;-81
2022/03/27 12:23:28;;;;;;;;;;;19.30;39.10;;;17.61;43.73;102635.53;8264739;28;20482;-85
2022/03/27 12:32:46;;;;;;;;;;;19.40;39.40;;;17.66;43.40;102600.91;8269290;28;19917;-81
2022/03/27 12:37:14;;;;;;;;;;;19.40;39.10;;;17.69;43.43;102587.56;8263147;28;20451;-82
2022/03/27 12:41:38;;;;;;;;;;;19.50;39.30;;;17.77;43.33;102579.19;8266225;28;19933;-83
2022/03/27 12:46:20;;;;;;;;;;;19.50;39.30;;;17.98;43.37;102601.78;8275427;28;19920;-82
2022/03/27 12:50:44;;;;;;;;;;;19.60;39.20;;;17.91;43.08;102564.28;8265777;28;20020;-82
2022/03/27 12:55:06;;;;;;;;;;;19.60;39.20;;;18.07;43.09;102580.13;8253580;28;20361;-82
2022/03/27 12:59:27;;;;;;;;;;;19.70;39.40;;;18.01;43.05;102551.41;8267517;28;19925;-84
2022/03/27 13:04:01;;;;;;;;;;;19.80;38.40;;;17.94;42.99;102536.84;8262951;28;19929;-81
2022/03/27 13:08:30;;;;;;;;;;;19.80;38.80;;;18.13;42.94;102553.34;8276509;28;19922;-84
2022/03/27 13:12:59;;;;;;;;;;;19.80;39.20;;;18.22;43.04;102551.09;8253261;28;19928;-82
2022/03/27 13:17:21;;;;;;;;;;;19.90;38.90;;;18.29;42.99;102555.94;8271463;28;19927;-81
2022/03/27 13:21:53;;;;;;;;;;;19.90;38.80;;;18.20;42.68;102530.03;8270668;28;20563;-81
2022/03/27 13:26:15;;;;;;;;;;;19.90;38.70;;;18.33;42.79;102548.66;8270438;28;19944;-81
2022/03/27 13:30:37;;;;;;;;;;;19.90;37.70;;;18.31;42.66;102538.19;8261300;28;20018;-82
2022/03/27 13:34:59;;;;;;;;;;;19.90;38.30;;;18.27;42.62;102527.88;8270726;28;19932;-81
2022/03/27 13:39:22;;;;;;;;;;;20.00;38.40;;;18.25;42.69;102511.25;8256812;28;19932;-81
2022/03/27 13:43:44;;;;;;;;;;;19.90;38.10;;;18.34;42.41;102529.22;8257742;28;19943;-81
2022/03/27 13:48:06;;;;;;;;;;;19.90;38.60;;;18.24;42.42;102505.09;8261626;28;19928;-81
2022/03/27 13:52:28;;;;;;;;;;;19.90;38.50;;;18.41;42.36;102525.25;8265844;28;19924;-82
2022/03/27 13:56:49;;;;;;;;;;;19.80;38.60;;;18.23;42.36;102484.91;8249607;28;20629;-81
2022/03/27 14:01:14;;;;;;;;;;;19.90;38.50;;;18.46;42.24;102517.91;8278130;28;20294;-82
2022/03/27 14:05:39;;;;;;;;;;;20.00;37.30;;;18.09;42.30;102450.47;8246818;28;19926;-82
2022/03/27 14:10:01;;;;;;;;;;;20.00;38.40;;;18.45;42.28;102505.63;8266670;28;19953;-81
2022/03/27 14:14:26;;;;;;;;;;;20.00;38.20;;;17.82;42.11;102393.03;8230713;28;19928;-81
2022/03/27 14:18:48;;;;;;;;;;;20.00;38.40;;;18.17;42.11;102442.09;8253694;28;19925;-82
2022/03/27 14:23:13;;;;;;;;;;;20.00;38.30;;;18.11;42.17;102428.28;8254953;28;19927;-82
2022/03/27 14:27:35;;;;;;;;;;;20.10;38.30;;;18.51;41.93;102470.84;8250842;28;19926;-81
2022/03/27 14:31:58;;;;;;;;;;;19.90;38.10;;;18.30;41.99;102451.00;8234439;28;20362;-81
2022/03/27 14:36:20;;;;;;;;;;;20.00;38.10;;;18.49;42.09;102478.03;8258258;28;19928;-82
2022/03/27 14:40:43;;;;;;;;;;;20.00;38.00;;;18.41;41.83;102461.75;8236320;28;19925;-80
2022/03/27 14:45:10;;;;;;;;;;;20.00;38.00;;;18.49;41.80;102469.25;8254753;28;19921;-82
2022/03/27 14:49:33;;;;;;;;;;;20.00;37.90;;;18.48;41.79;102464.91;8255814;28;20021;-83
2022/03/27 14:58:37;;;;;;;;;;;19.90;38.00;;;17.81;41.73;102342.91;8256839;28;19925;-81
2022/03/27 15:03:08;;;;;;;;;;;20.20;37.90;;;18.03;41.52;102376.81;8252369;28;19925;-82
2022/03/27 15:07:32;;;;;;;;;;;20.00;37.60;;;18.21;41.60;102404.81;8258605;28;19925;-82
2022/03/27 15:11:54;;;;;;;;;;;20.00;37.60;;;18.21;41.42;102396.03;8250805;28;19921;-80
2022/03/27 15:16:16;;;;;;;;;;;19.90;37.20;;;18.40;41.48;102430.97;8240492;28;20104;-81
2022/03/27 15:20:38;;;;;;;;;;;19.90;37.10;;;18.35;41.31;102418.03;8270924;28;19932;-81
2022/03/27 15:24:59;;;;;;;;;;;19.90;37.10;;;18.30;41.36;102422.75;8264839;28;19925;-81
2022/03/27 15:29:21;;;;;;;;;;;19.80;37.10;;;18.30;41.14;102419.25;8256754;28;20706;-80
2022/03/27 15:33:44;;;;;;;;;;;19.50;37.20;;;18.24;41.23;102403.75;8263986;28;20628;-80
2022/03/27 15:38:06;;;;;;;;;;;19.80;37.40;;;18.16;41.19;102384.88;8252602;28;19928;-81
2022/03/27 15:42:27;;;;;;;;;;;19.70;37.40;;;18.31;41.23;102418.31;8249197;28;20020;-80
2022/03/27 15:46:49;;;;;;;;;;;19.70;37.30;;;18.23;41.29;102399.44;8249818;28;19925;-81
2022/03/27 15:51:11;;;;;;;;;;;19.70;37.20;;;18.21;41.13;102396.88;8237925;28;19921;-80
2022/03/27 15:55:33;;;;;;;;;;;19.70;37.30;;;18.15;41.06;102384.03;8261374;28;19936;-81
2022/03/27 15:59:55;;;;;;;;;;;19.70;37.30;;;18.16;40.91;102379.59;8250344;28;19926;-81
2022/03/27 16:04:16;;;;;;;;;;;19.70;37.20;;;18.16;40.92;102369.84;8245480;28;20401;-81
2022/03/27 16:08:39;;;;;;;;;;;19.70;36.30;;;18.20;40.87;102375.78;8252018;28;19922;-80
2022/03/27 16:13:00;;;;;;;;;;;19.60;36.90;;;18.25;40.82;102381.66;8265368;28;19921;-80
2022/03/27 16:17:23;;;;;;;;;;;19.70;37.00;;;18.23;40.73;102380.91;8267480;28;19921;-80
2022/03/27 16:21:47;;;;;;;;;;;19.70;36.80;;;18.11;40.80;102367.47;8268932;28;19940;-81
2022/03/27 16:26:08;;;;;;;;;;;19.60;37.00;;;18.18;40.79;102385.63;8268069;28;19925;-81
2022/03/27 16:30:30;;;;;;;;;;;19.60;37.10;;;18.17;40.99;102375.97;8266399;28;19928;-81
2022/03/27 16:34:51;;;;;;;;;;;19.80;37.20;;;18.07;40.68;102365.97;8257003;28;19921;-81
2022/03/27 16:39:13;;;;;;;;;;;19.50;37.00;;;17.99;40.48;102357.66;8266723;28;19929;-81
2022/03/27 16:43:35;;;;;;;;;;;19.50;36.90;;;17.98;40.58;102363.03;8254036;28;19928;-81
2022/03/27 16:47:57;;;;;;;;;;;19.50;36.70;;;17.89;40.47;102361.78;8265781;28;20665;-81
2022/03/27 16:52:18;;;;;;;;;;;19.40;36.90;;;17.89;40.60;102370.56;8252089;28;19921;-80
2022/03/27 16:56:40;;;;;;;;;;;19.40;36.60;;;17.92;40.57;102390.69;8267877;28;19928;-80
2022/03/27 17:01:03;;;;;;;;;;;19.30;36.80;;;17.72;40.46;102364.56;8268758;28;19925;-81
2022/03/27 17:05:24;;;;;;;;;;;19.30;36.90;;;17.79;40.39;102384.41;8273826;28;20009;-81
2022/03/27 17:09:46;;;;;;;;;;;19.20;36.90;;;17.64;40.29;102357.94;8269767;28;19921;-80
2022/03/27 17:14:10;;;;;;;;;;;19.10;37.20;;;17.57;40.30;102356.59;8271825;28;19925;-81
2022/03/27 17:18:35;;;;;;;;;;;19.00;36.90;;;17.62;40.36;102365.09;8267158;28;19922;-80
2022/03/27 17:22:57;;;;;;;;;;;19.00;36.90;;;17.55;40.38;102365.53;8271406;28;19925;-80
2022/03/27 17:27:18;;;;;;;;;;;18.80;36.90;;;17.42;40.21;102349.56;8259242;28;19921;-81
2022/03/27 17:31:40;;;;;;;;;;;18.90;37.00;;;17.43;40.28;102367.13;8257008;28;20597;-81
2022/03/27 17:36:02;;;;;;;;;;;18.80;37.00;;;17.39;40.20;102360.28;8240601;28;19925;-81
2022/03/27 17:40:26;;;;;;;;;;;18.80;37.10;;;17.36;40.38;102364.00;8260840;28;19925;-81
2022/03/27 17:44:48;;;;;;;;;;;18.70;37.10;;;17.30;40.15;102369.59;8264537;28;19921;-81
2022/03/27 17:49:10;;;;;;;;;;;18.60;37.10;;;17.23;40.07;102369.13;8263823;28;19926;-81
2022/03/27 17:53:34;;;;;;;;;;;18.60;37.20;;;17.14;40.26;102366.13;8255902;28;19927;-81
2022/03/27 17:57:58;;;;;;;;;;;18.50;37.20;;;17.05;40.17;102361.38;8268192;28;19922;-81
2022/03/27 18:02:20;;;;;;;;;;;18.40;37.20;;;16.89;40.26;102354.31;8254124;28;20374;-81
2022/03/27 18:06:44;;;;;;;;;;;18.40;37.20;;;16.88;40.24;102365.81;8255709;28;20287;-81
2022/03/27 18:11:06;;;;;;;;;;;18.30;37.20;;;16.74;40.31;102363.03;8266351;28;19929;-81
2022/03/27 18:15:28;;;;;;;;;;;18.20;37.30;;;16.70;40.13;102367.66;8253141;28;19927;-81
2022/03/27 18:19:51;;;;;;;;;;;18.10;37.30;;;16.66;40.14;102381.97;8277639;28;19929;-81
2022/03/27 18:24:12;;;;;;;;;;;18.10;37.30;;;16.58;40.30;102377.09;8259708;28;19928;-81
2022/03/27 18:28:35;;;;;;;;;;;17.90;37.30;;;16.53;40.19;102394.09;8263863;28;20218;-81
2022/03/27 18:33:00;;;;;;;;;;;17.90;37.30;;;16.40;40.16;102375.44;8267688;28;21351;-81
2022/03/27 18:37:22;;;;;;;;;;;17.80;37.30;;;16.24;40.14;102372.75;8271621;28;19928;-82
2022/03/27 18:41:43;;;;;;;;;;;17.70;37.30;;;16.19;39.90;102382.69;8283942;28;19929;-81
2022/03/27 18:46:07;;;;;;;;;;;17.60;37.30;;;16.10;40.32;102388.44;8291258;28;19925;-81
2022/03/27 18:50:28;;;;;;;;;;;17.50;37.30;;;15.96;40.09;102380.38;8263818;28;20893;-81
2022/03/27 18:54:50;;;;;;;;;;;17.40;37.30;;;15.81;40.56;102374.97;8252285;28;19929;-81
2022/03/27 18:59:12;;;;;;;;;;;17.20;37.30;;;15.73;40.31;102385.03;8265400;28;19931;-81
2022/03/27 19:03:33;;;;;;;;;;;17.10;37.30;;;15.59;40.10;102385.72;8280384;28;19922;-81
2022/03/27 19:07:55;;;;;;;;;;;17.00;37.20;;;15.46;39.96;102376.72;8252254;28;19921;-81
2022/03/27 19:12:17;;;;;;;;;;;16.80;37.20;;;15.29;40.41;102369.66;8247275;28;19930;-81
2022/03/27 19:16:38;;;;;;;;;;;16.70;37.20;;;15.18;40.22;102375.44;8269513;28;20335;-81
2022/03/27 19:21:16;;;;;;;;;;;16.60;37.30;;;15.12;40.38;102372.22;8263275;28;19925;-81
2022/03/27 19:25:42;;;;;;;;;;;16.50;37.40;;;14.92;40.25;102358.25;8253200;28;20408;-81
2022/03/27 19:30:09;;;;;;;;;;;16.40;37.40;;;14.90;40.51;102373.22;8259054;28;20358;-81
2022/03/27 19:34:33;;;;;;;;;;;16.30;37.40;;;14.87;40.42;102373.38;8246221;28;19921;-81
2022/03/27 19:38:55;;;;;;;;;;;16.20;37.50;;;14.78;40.16;102368.56;8264119;28;20361;-81
2022/03/27 19:43:17;;;;;;;;;;;16.20;37.60;;;14.75;40.58;102373.97;8249859;28;19917;-81
2022/03/27 19:47:39;;;;;;;;;;;16.10;37.60;;;14.56;40.43;102347.66;8274782;28;20008;-81
2022/03/27 19:52:01;;;;;;;;;;;16.00;37.60;;;14.55;40.15;102366.97;8265365;28;20004;-80
2022/03/27 19:56:23;;;;;;;;;;;16.00;37.70;;;14.48;40.51;102370.78;8276333;28;19918;-80
2022/03/27 20:00:44;;;;;;;;;;;15.80;37.70;;;14.44;40.50;102367.44;8270283;28;19921;-81
2022/03/27 20:05:09;;;;;;;;;;;16.00;37.80;;;14.35;40.56;102367.84;8294335;28;19918;-81
2022/03/27 20:09:34;;;;;;;;;;;15.70;37.70;;;14.23;40.53;102360.50;8289395;28;19927;-82
2022/03/27 20:13:56;;;;;;;;;;;15.60;37.70;;;14.10;40.28;102376.81;8259941;28;19923;-81
2022/03/27 20:18:17;;;;;;;;;;;15.40;37.70;;;13.98;40.42;102369.47;8261335;28;20008;-81
2022/03/27 20:22:40;;;;;;;;;;;15.40;37.70;;;13.87;40.61;102375.19;8277787;28;19925;-80
2022/03/27 20:27:02;;;;;;;;;;;15.20;37.70;;;13.81;40.58;102380.69;8281800;28;19924;-81